sensor_id;sensor_type;location;lat;lon;timestamp;P1;durP1;ratioP1;P2;durP2;ratioP2
5785;SDS011;2919;48.630;9.000;2023-02-28T00:01:07;6.40;;;1.93;;
5785;SDS011;2919;48.630;9.000;2023-02-28T00:03:32;3.10;;;1.63;;
5785;SDS011;2919;48.630;9.000;2023-02-28T00:06:00;2.13;;;0.90;;
5785;SDS011;2919;48.630;9.000;2023-02-28T00:08:27;3.43;;;1.53;;
5785;SDS011;2919;48.630;9.000;2023-02-28T00:10:53;2.27;;;1.37;;
5785;SDS011;2919;48.630;9.000;2023-02-28T00:13:19;2.43;;;1.20;;
5785;SDS011;2919;48.630;9.000;2023-02-28T00:15:44;3.67;;;2.10;;
5785;SDS011;2919;48.630;9.000;2023-02-28T00:18:10;3.73;;;1.50;;
5785;SDS011;2919;48.630;9.000;2023-02-28T00:20:36;5.33;;;1.20;;
5785;SDS011;2919;48.630;9.000;2023-02-28T00:23:02;1.47;;;0.83;;
5785;SDS011;2919;48.630;9.000;2023-02-28T00:25:28;1.70;;;0.93;;
5785;SDS011;2919;48.630;9.000;2023-02-28T00:27:53;7.20;;;1.73;;
5785;SDS011;2919;48.630;9.000;2023-02-28T00:30:20;4.03;;;0.90;;
5785;SDS011;2919;48.630;9.000;2023-02-28T00:32:47;1.70;;;1.10;;
5785;SDS011;2919;48.630;9.000;2023-02-28T00:35:13;4.33;;;1.63;;
5785;SDS011;2919;48.630;9.000;2023-02-28T00:37:39;2.27;;;1.23;;
5785;SDS011;2919;48.630;9.000;2023-02-28T00:40:05;4.90;;;1.83;;
5785;SDS011;2919;48.630;9.000;2023-02-28T00:42:32;4.70;;;1.30;;
5785;SDS011;2919;48.630;9.000;2023-02-28T00:44:58;2.03;;;1.03;;
5785;SDS011;2919;48.630;9.000;2023-02-28T00:47:24;5.23;;;2.27;;
5785;SDS011;2919;48.630;9.000;2023-02-28T00:49:50;1.93;;;1.00;;
5785;SDS011;2919;48.630;9.000;2023-02-28T00:52:16;3.43;;;1.30;;
5785;SDS011;2919;48.630;9.000;2023-02-28T00:54:41;3.87;;;1.30;;
5785;SDS011;2919;48.630;9.000;2023-02-28T00:57:07;6.17;;;2.20;;
5785;SDS011;2919;48.630;9.000;2023-02-28T00:59:32;2.10;;;1.00;;
5785;SDS011;2919;48.630;9.000;2023-02-28T01:01:58;5.77;;;1.63;;
5785;SDS011;2919;48.630;9.000;2023-02-28T01:04:24;1.00;;;0.40;;
5785;SDS011;2919;48.630;9.000;2023-02-28T01:06:49;2.27;;;1.17;;
5785;SDS011;2919;48.630;9.000;2023-02-28T01:09:15;3.70;;;1.33;;
5785;SDS011;2919;48.630;9.000;2023-02-28T01:11:40;2.30;;;1.13;;
5785;SDS011;2919;48.630;9.000;2023-02-28T01:14:09;1.00;;;0.40;;
5785;SDS011;2919;48.630;9.000;2023-02-28T01:16:38;2.63;;;1.37;;
5785;SDS011;2919;48.630;9.000;2023-02-28T01:19:04;2.80;;;1.20;;
5785;SDS011;2919;48.630;9.000;2023-02-28T01:21:29;1.00;;;0.40;;
5785;SDS011;2919;48.630;9.000;2023-02-28T01:23:56;2.23;;;1.10;;
5785;SDS011;2919;48.630;9.000;2023-02-28T01:26:22;2.60;;;1.47;;
5785;SDS011;2919;48.630;9.000;2023-02-28T01:28:49;3.20;;;1.33;;
5785;SDS011;2919;48.630;9.000;2023-02-28T01:31:16;2.77;;;1.57;;
5785;SDS011;2919;48.630;9.000;2023-02-28T01:33:43;5.70;;;2.10;;
5785;SDS011;2919;48.630;9.000;2023-02-28T01:38:37;2.60;;;1.20;;
5785;SDS011;2919;48.630;9.000;2023-02-28T01:41:03;6.60;;;1.63;;
5785;SDS011;2919;48.630;9.000;2023-02-28T01:46:08;8.73;;;1.67;;
5785;SDS011;2919;48.630;9.000;2023-02-28T01:48:35;2.93;;;1.53;;
5785;SDS011;2919;48.630;9.000;2023-02-28T01:51:11;2.67;;;1.70;;
5785;SDS011;2919;48.630;9.000;2023-02-28T01:53:43;1.00;;;0.40;;
5785;SDS011;2919;48.630;9.000;2023-02-28T01:56:12;1.00;;;0.40;;
5785;SDS011;2919;48.630;9.000;2023-02-28T01:58:45;1.00;;;0.40;;
5785;SDS011;2919;48.630;9.000;2023-02-28T02:01:12;2.10;;;1.20;;
5785;SDS011;2919;48.630;9.000;2023-02-28T02:03:46;4.03;;;1.47;;
5785;SDS011;2919;48.630;9.000;2023-02-28T02:06:20;3.20;;;1.50;;
5785;SDS011;2919;48.630;9.000;2023-02-28T02:08:47;2.73;;;1.40;;
5785;SDS011;2919;48.630;9.000;2023-02-28T02:11:12;3.67;;;1.60;;
5785;SDS011;2919;48.630;9.000;2023-02-28T02:13:57;3.20;;;1.10;;
5785;SDS011;2919;48.630;9.000;2023-02-28T02:20:02;4.23;;;1.20;;
5785;SDS011;2919;48.630;9.000;2023-02-28T02:34:17;4.00;;;1.70;;
5785;SDS011;2919;48.630;9.000;2023-02-28T02:36:58;3.30;;;1.17;;
5785;SDS011;2919;48.630;9.000;2023-02-28T02:39:40;2.97;;;1.60;;
5785;SDS011;2919;48.630;9.000;2023-02-28T02:42:31;4.33;;;1.47;;
5785;SDS011;2919;48.630;9.000;2023-02-28T02:45:31;5.23;;;1.37;;
5785;SDS011;2919;48.630;9.000;2023-02-28T02:48:12;2.70;;;1.73;;
5785;SDS011;2919;48.630;9.000;2023-02-28T02:50:42;2.87;;;1.67;;
5785;SDS011;2919;48.630;9.000;2023-02-28T02:53:11;4.67;;;1.67;;
5785;SDS011;2919;48.630;9.000;2023-02-28T02:55:40;3.60;;;1.53;;
5785;SDS011;2919;48.630;9.000;2023-02-28T02:58:10;2.50;;;1.33;;
5785;SDS011;2919;48.630;9.000;2023-02-28T03:00:42;2.70;;;1.37;;
5785;SDS011;2919;48.630;9.000;2023-02-28T03:03:12;6.90;;;1.63;;
5785;SDS011;2919;48.630;9.000;2023-02-28T03:05:41;2.90;;;1.70;;
5785;SDS011;2919;48.630;9.000;2023-02-28T03:08:11;4.33;;;2.27;;
5785;SDS011;2919;48.630;9.000;2023-02-28T03:10:38;2.60;;;1.57;;
5785;SDS011;2919;48.630;9.000;2023-02-28T03:13:16;2.23;;;1.27;;
5785;SDS011;2919;48.630;9.000;2023-02-28T03:26:31;8.10;;;2.90;;
5785;SDS011;2919;48.630;9.000;2023-02-28T03:31:41;4.00;;;1.57;;
5785;SDS011;2919;48.630;9.000;2023-02-28T03:34:15;4.43;;;2.47;;
5785;SDS011;2919;48.630;9.000;2023-02-28T03:36:45;3.33;;;2.10;;
5785;SDS011;2919;48.630;9.000;2023-02-28T03:39:19;4.03;;;1.90;;
5785;SDS011;2919;48.630;9.000;2023-02-28T03:41:50;3.73;;;1.77;;
5785;SDS011;2919;48.630;9.000;2023-02-28T03:44:32;3.57;;;1.50;;
5785;SDS011;2919;48.630;9.000;2023-02-28T03:49:50;3.37;;;1.70;;
5785;SDS011;2919;48.630;9.000;2023-02-28T03:52:21;5.20;;;1.60;;
5785;SDS011;2919;48.630;9.000;2023-02-28T03:54:51;2.73;;;1.73;;
5785;SDS011;2919;48.630;9.000;2023-02-28T04:00:55;6.87;;;3.07;;
5785;SDS011;2919;48.630;9.000;2023-02-28T04:03:13;3.07;;;1.90;;
5785;SDS011;2919;48.630;9.000;2023-02-28T04:06:13;5.90;;;2.30;;
5785;SDS011;2919;48.630;9.000;2023-02-28T04:08:33;5.17;;;2.00;;
5785;SDS011;2919;48.630;9.000;2023-02-28T04:11:04;4.50;;;2.20;;
5785;SDS011;2919;48.630;9.000;2023-02-28T04:13:44;2.60;;;1.80;;
5785;SDS011;2919;48.630;9.000;2023-02-28T04:16:09;4.43;;;2.40;;
5785;SDS011;2919;48.630;9.000;2023-02-28T04:18:40;6.70;;;2.93;;
5785;SDS011;2919;48.630;9.000;2023-02-28T04:21:08;6.10;;;2.07;;
5785;SDS011;2919;48.630;9.000;2023-02-28T04:23:34;4.93;;;2.43;;
5785;SDS011;2919;48.630;9.000;2023-02-28T04:26:00;4.20;;;1.60;;
5785;SDS011;2919;48.630;9.000;2023-02-28T04:28:25;6.23;;;1.90;;
5785;SDS011;2919;48.630;9.000;2023-02-28T04:30:57;4.37;;;2.17;;
5785;SDS011;2919;48.630;9.000;2023-02-28T04:33:24;2.47;;;1.60;;
5785;SDS011;2919;48.630;9.000;2023-02-28T04:36:00;9.23;;;2.10;;
5785;SDS011;2919;48.630;9.000;2023-02-28T04:38:30;4.90;;;1.80;;
5785;SDS011;2919;48.630;9.000;2023-02-28T04:40:58;4.03;;;2.10;;
5785;SDS011;2919;48.630;9.000;2023-02-28T04:43:25;3.50;;;1.83;;
5785;SDS011;2919;48.630;9.000;2023-02-28T04:45:52;7.53;;;2.77;;
5785;SDS011;2919;48.630;9.000;2023-02-28T04:48:17;5.40;;;2.13;;
5785;SDS011;2919;48.630;9.000;2023-02-28T04:50:43;3.73;;;2.07;;
5785;SDS011;2919;48.630;9.000;2023-02-28T04:53:09;3.90;;;2.27;;
5785;SDS011;2919;48.630;9.000;2023-02-28T04:55:34;3.40;;;1.97;;
5785;SDS011;2919;48.630;9.000;2023-02-28T04:58:00;3.40;;;2.27;;
5785;SDS011;2919;48.630;9.000;2023-02-28T05:00:25;7.90;;;2.93;;
5785;SDS011;2919;48.630;9.000;2023-02-28T05:02:51;5.57;;;2.50;;
5785;SDS011;2919;48.630;9.000;2023-02-28T05:05:17;5.63;;;1.83;;
5785;SDS011;2919;48.630;9.000;2023-02-28T05:07:44;3.27;;;1.80;;
5785;SDS011;2919;48.630;9.000;2023-02-28T05:10:10;7.93;;;2.57;;
5785;SDS011;2919;48.630;9.000;2023-02-28T05:12:36;14.63;;;3.17;;
5785;SDS011;2919;48.630;9.000;2023-02-28T05:15:02;4.23;;;2.23;;
5785;SDS011;2919;48.630;9.000;2023-02-28T05:17:29;7.50;;;2.40;;
5785;SDS011;2919;48.630;9.000;2023-02-28T05:19:55;5.20;;;2.80;;
5785;SDS011;2919;48.630;9.000;2023-02-28T05:22:21;7.20;;;2.90;;
5785;SDS011;2919;48.630;9.000;2023-02-28T05:24:46;4.77;;;2.40;;
5785;SDS011;2919;48.630;9.000;2023-02-28T05:27:12;9.73;;;2.53;;
5785;SDS011;2919;48.630;9.000;2023-02-28T05:29:38;6.50;;;2.70;;
5785;SDS011;2919;48.630;9.000;2023-02-28T05:32:06;3.17;;;1.97;;
5785;SDS011;2919;48.630;9.000;2023-02-28T05:34:33;4.77;;;2.70;;
5785;SDS011;2919;48.630;9.000;2023-02-28T05:36:59;5.13;;;2.70;;
5785;SDS011;2919;48.630;9.000;2023-02-28T05:39:24;5.47;;;2.87;;
5785;SDS011;2919;48.630;9.000;2023-02-28T05:41:51;6.23;;;2.70;;
5785;SDS011;2919;48.630;9.000;2023-02-28T05:44:17;4.10;;;2.73;;
5785;SDS011;2919;48.630;9.000;2023-02-28T05:46:42;7.13;;;2.97;;
5785;SDS011;2919;48.630;9.000;2023-02-28T05:49:08;3.83;;;2.33;;
5785;SDS011;2919;48.630;9.000;2023-02-28T05:51:33;4.33;;;2.80;;
5785;SDS011;2919;48.630;9.000;2023-02-28T05:54:01;7.03;;;3.33;;
5785;SDS011;2919;48.630;9.000;2023-02-28T05:56:27;8.33;;;3.40;;
5785;SDS011;2919;48.630;9.000;2023-02-28T05:58:53;5.53;;;2.70;;
5785;SDS011;2919;48.630;9.000;2023-02-28T06:01:35;6.70;;;2.60;;
5785;SDS011;2919;48.630;9.000;2023-02-28T06:04:03;5.33;;;2.57;;
5785;SDS011;2919;48.630;9.000;2023-02-28T06:06:30;7.63;;;3.10;;
5785;SDS011;2919;48.630;9.000;2023-02-28T06:08:56;5.77;;;3.37;;
5785;SDS011;2919;48.630;9.000;2023-02-28T06:11:22;6.00;;;2.80;;
5785;SDS011;2919;48.630;9.000;2023-02-28T06:13:53;8.70;;;3.63;;
5785;SDS011;2919;48.630;9.000;2023-02-28T06:16:20;4.73;;;2.70;;
5785;SDS011;2919;48.630;9.000;2023-02-28T06:18:46;5.63;;;3.23;;
5785;SDS011;2919;48.630;9.000;2023-02-28T06:21:12;5.73;;;3.10;;
5785;SDS011;2919;48.630;9.000;2023-02-28T06:23:38;5.70;;;2.87;;
5785;SDS011;2919;48.630;9.000;2023-02-28T06:26:04;9.40;;;3.80;;
5785;SDS011;2919;48.630;9.000;2023-02-28T06:28:30;14.43;;;3.33;;
5785;SDS011;2919;48.630;9.000;2023-02-28T06:30:56;6.57;;;3.47;;
5785;SDS011;2919;48.630;9.000;2023-02-28T06:33:21;5.07;;;2.33;;
5785;SDS011;2919;48.630;9.000;2023-02-28T06:35:49;5.20;;;3.37;;
5785;SDS011;2919;48.630;9.000;2023-02-28T06:38:15;8.23;;;3.37;;
5785;SDS011;2919;48.630;9.000;2023-02-28T06:40:43;7.90;;;3.60;;
5785;SDS011;2919;48.630;9.000;2023-02-28T06:43:09;4.30;;;2.87;;
5785;SDS011;2919;48.630;9.000;2023-02-28T06:45:36;7.00;;;3.33;;
5785;SDS011;2919;48.630;9.000;2023-02-28T06:48:02;7.40;;;3.50;;
5785;SDS011;2919;48.630;9.000;2023-02-28T06:50:28;5.43;;;2.93;;
5785;SDS011;2919;48.630;9.000;2023-02-28T06:52:54;7.60;;;3.80;;
5785;SDS011;2919;48.630;9.000;2023-02-28T06:55:20;8.07;;;3.63;;
5785;SDS011;2919;48.630;9.000;2023-02-28T06:57:46;10.73;;;3.60;;
5785;SDS011;2919;48.630;9.000;2023-02-28T07:00:11;7.30;;;3.67;;
5785;SDS011;2919;48.630;9.000;2023-02-28T07:02:38;6.77;;;3.77;;
5785;SDS011;2919;48.630;9.000;2023-02-28T07:05:04;8.60;;;3.60;;
5785;SDS011;2919;48.630;9.000;2023-02-28T07:07:30;7.13;;;2.70;;
5785;SDS011;2919;48.630;9.000;2023-02-28T07:09:57;7.23;;;3.40;;
5785;SDS011;2919;48.630;9.000;2023-02-28T07:12:22;5.40;;;3.10;;
5785;SDS011;2919;48.630;9.000;2023-02-28T07:14:48;6.43;;;3.50;;
5785;SDS011;2919;48.630;9.000;2023-02-28T07:17:14;8.00;;;4.40;;
5785;SDS011;2919;48.630;9.000;2023-02-28T07:19:39;9.57;;;3.73;;
5785;SDS011;2919;48.630;9.000;2023-02-28T07:22:05;7.77;;;3.23;;
5785;SDS011;2919;48.630;9.000;2023-02-28T07:24:31;4.57;;;2.97;;
5785;SDS011;2919;48.630;9.000;2023-02-28T07:26:57;9.17;;;3.20;;
5785;SDS011;2919;48.630;9.000;2023-02-28T07:29:24;5.40;;;3.13;;
5785;SDS011;2919;48.630;9.000;2023-02-28T07:31:50;8.73;;;3.40;;
5785;SDS011;2919;48.630;9.000;2023-02-28T07:34:18;7.87;;;3.53;;
5785;SDS011;2919;48.630;9.000;2023-02-28T07:36:44;4.23;;;3.07;;
5785;SDS011;2919;48.630;9.000;2023-02-28T07:39:09;9.67;;;3.00;;
5785;SDS011;2919;48.630;9.000;2023-02-28T07:41:35;7.30;;;4.27;;
5785;SDS011;2919;48.630;9.000;2023-02-28T07:44:07;7.53;;;3.10;;
5785;SDS011;2919;48.630;9.000;2023-02-28T07:46:36;9.77;;;4.10;;
5785;SDS011;2919;48.630;9.000;2023-02-28T07:49:02;12.20;;;4.50;;
5785;SDS011;2919;48.630;9.000;2023-02-28T07:51:28;8.83;;;4.27;;
5785;SDS011;2919;48.630;9.000;2023-02-28T07:53:55;6.23;;;3.90;;
5785;SDS011;2919;48.630;9.000;2023-02-28T07:56:21;10.30;;;3.93;;
5785;SDS011;2919;48.630;9.000;2023-02-28T07:58:46;7.87;;;3.50;;
5785;SDS011;2919;48.630;9.000;2023-02-28T08:01:12;7.40;;;4.10;;
5785;SDS011;2919;48.630;9.000;2023-02-28T08:03:38;8.30;;;4.00;;
5785;SDS011;2919;48.630;9.000;2023-02-28T08:06:05;7.00;;;3.70;;
5785;SDS011;2919;48.630;9.000;2023-02-28T08:08:32;8.50;;;4.70;;
5785;SDS011;2919;48.630;9.000;2023-02-28T08:11:01;11.80;;;4.37;;
5785;SDS011;2919;48.630;9.000;2023-02-28T08:13:28;7.30;;;3.90;;
5785;SDS011;2919;48.630;9.000;2023-02-28T08:15:54;10.67;;;4.17;;
5785;SDS011;2919;48.630;9.000;2023-02-28T08:18:21;8.00;;;3.90;;
5785;SDS011;2919;48.630;9.000;2023-02-28T08:20:47;5.67;;;3.27;;
5785;SDS011;2919;48.630;9.000;2023-02-28T08:23:13;6.93;;;4.00;;
5785;SDS011;2919;48.630;9.000;2023-02-28T08:25:39;4.23;;;2.73;;
5785;SDS011;2919;48.630;9.000;2023-02-28T08:28:05;8.97;;;3.97;;
5785;SDS011;2919;48.630;9.000;2023-02-28T08:30:30;5.23;;;3.20;;
5785;SDS011;2919;48.630;9.000;2023-02-28T08:32:56;5.73;;;3.80;;
5785;SDS011;2919;48.630;9.000;2023-02-28T08:35:22;9.03;;;4.63;;
5785;SDS011;2919;48.630;9.000;2023-02-28T08:37:48;9.03;;;4.13;;
5785;SDS011;2919;48.630;9.000;2023-02-28T08:40:14;6.70;;;4.30;;
5785;SDS011;2919;48.630;9.000;2023-02-28T08:42:43;6.90;;;4.30;;
5785;SDS011;2919;48.630;9.000;2023-02-28T08:45:09;9.10;;;3.90;;
5785;SDS011;2919;48.630;9.000;2023-02-28T08:47:36;16.67;;;4.50;;
5785;SDS011;2919;48.630;9.000;2023-02-28T08:50:02;7.73;;;3.27;;
5785;SDS011;2919;48.630;9.000;2023-02-28T08:52:28;9.07;;;3.93;;
5785;SDS011;2919;48.630;9.000;2023-02-28T08:54:53;7.93;;;4.20;;
5785;SDS011;2919;48.630;9.000;2023-02-28T08:57:19;5.67;;;3.60;;
5785;SDS011;2919;48.630;9.000;2023-02-28T08:59:45;7.97;;;4.97;;
5785;SDS011;2919;48.630;9.000;2023-02-28T09:02:13;9.70;;;3.97;;
5785;SDS011;2919;48.630;9.000;2023-02-28T09:04:39;14.30;;;3.93;;
5785;SDS011;2919;48.630;9.000;2023-02-28T09:07:05;6.77;;;3.83;;
5785;SDS011;2919;48.630;9.000;2023-02-28T09:09:31;11.70;;;5.17;;
5785;SDS011;2919;48.630;9.000;2023-02-28T09:11:56;9.20;;;3.87;;
5785;SDS011;2919;48.630;9.000;2023-02-28T09:14:23;5.50;;;4.00;;
5785;SDS011;2919;48.630;9.000;2023-02-28T09:16:49;8.83;;;4.40;;
5785;SDS011;2919;48.630;9.000;2023-02-28T09:19:14;8.40;;;4.27;;
5785;SDS011;2919;48.630;9.000;2023-02-28T09:21:40;13.10;;;5.37;;
5785;SDS011;2919;48.630;9.000;2023-02-28T09:24:06;6.50;;;4.60;;
5785;SDS011;2919;48.630;9.000;2023-02-28T09:26:32;14.80;;;4.70;;
5785;SDS011;2919;48.630;9.000;2023-02-28T09:28:59;6.10;;;4.13;;
5785;SDS011;2919;48.630;9.000;2023-02-28T09:31:26;12.23;;;4.60;;
5785;SDS011;2919;48.630;9.000;2023-02-28T09:33:53;7.33;;;3.40;;
5785;SDS011;2919;48.630;9.000;2023-02-28T09:36:21;5.90;;;3.93;;
5785;SDS011;2919;48.630;9.000;2023-02-28T09:38:47;8.63;;;4.63;;
5785;SDS011;2919;48.630;9.000;2023-02-28T09:41:15;7.77;;;3.53;;
5785;SDS011;2919;48.630;9.000;2023-02-28T09:43:58;7.13;;;3.30;;
5785;SDS011;2919;48.630;9.000;2023-02-28T09:46:44;8.30;;;4.43;;
5785;SDS011;2919;48.630;9.000;2023-02-28T09:49:17;5.57;;;3.93;;
5785;SDS011;2919;48.630;9.000;2023-02-28T09:51:58;7.00;;;4.30;;
5785;SDS011;2919;48.630;9.000;2023-02-28T09:54:31;6.47;;;3.77;;
5785;SDS011;2919;48.630;9.000;2023-02-28T09:56:59;5.80;;;3.37;;
5785;SDS011;2919;48.630;9.000;2023-02-28T10:05:11;9.33;;;4.30;;
5785;SDS011;2919;48.630;9.000;2023-02-28T10:10:38;8.00;;;4.20;;
5785;SDS011;2919;48.630;9.000;2023-02-28T10:13:05;10.00;;;4.43;;
5785;SDS011;2919;48.630;9.000;2023-02-28T10:15:40;6.63;;;3.90;;
5785;SDS011;2919;48.630;9.000;2023-02-28T10:18:09;10.03;;;4.37;;
5785;SDS011;2919;48.630;9.000;2023-02-28T10:20:40;9.20;;;4.10;;
5785;SDS011;2919;48.630;9.000;2023-02-28T10:23:16;9.07;;;4.07;;
5785;SDS011;2919;48.630;9.000;2023-02-28T10:25:55;7.83;;;3.77;;
5785;SDS011;2919;48.630;9.000;2023-02-28T10:28:24;8.40;;;4.20;;
5785;SDS011;2919;48.630;9.000;2023-02-28T10:30:51;8.20;;;3.83;;
5785;SDS011;2919;48.630;9.000;2023-02-28T10:35:51;6.90;;;3.90;;
5785;SDS011;2919;48.630;9.000;2023-02-28T10:38:18;8.00;;;4.10;;
5785;SDS011;2919;48.630;9.000;2023-02-28T10:40:47;5.30;;;3.33;;
5785;SDS011;2919;48.630;9.000;2023-02-28T10:45:38;34.63;;;4.07;;
5785;SDS011;2919;48.630;9.000;2023-02-28T10:56:33;12.13;;;4.47;;
5785;SDS011;2919;48.630;9.000;2023-02-28T10:58:49;7.13;;;4.50;;
5785;SDS011;2919;48.630;9.000;2023-02-28T11:07:06;7.83;;;3.83;;
5785;SDS011;2919;48.630;9.000;2023-02-28T11:09:49;7.73;;;5.03;;
5785;SDS011;2919;48.630;9.000;2023-02-28T11:12:26;7.93;;;3.67;;
5785;SDS011;2919;48.630;9.000;2023-02-28T11:14:54;9.17;;;3.57;;
5785;SDS011;2919;48.630;9.000;2023-02-28T11:17:27;8.90;;;4.43;;
5785;SDS011;2919;48.630;9.000;2023-02-28T11:20:04;21.57;;;5.13;;
5785;SDS011;2919;48.630;9.000;2023-02-28T11:22:36;7.07;;;3.30;;
5785;SDS011;2919;48.630;9.000;2023-02-28T11:25:09;6.03;;;3.77;;
5785;SDS011;2919;48.630;9.000;2023-02-28T11:27:48;11.20;;;4.80;;
5785;SDS011;2919;48.630;9.000;2023-02-28T11:30:35;7.17;;;4.20;;
5785;SDS011;2919;48.630;9.000;2023-02-28T11:35:55;8.77;;;4.60;;
5785;SDS011;2919;48.630;9.000;2023-02-28T11:38:25;10.53;;;4.20;;
5785;SDS011;2919;48.630;9.000;2023-02-28T11:46:33;8.23;;;4.50;;
5785;SDS011;2919;48.630;9.000;2023-02-28T11:51:57;7.93;;;4.20;;
5785;SDS011;2919;48.630;9.000;2023-02-28T11:57:35;7.77;;;4.17;;
5785;SDS011;2919;48.630;9.000;2023-02-28T12:26:44;10.03;;;4.13;;
5785;SDS011;2919;48.630;9.000;2023-02-28T12:29:30;8.70;;;4.13;;
5785;SDS011;2919;48.630;9.000;2023-02-28T12:35:12;6.73;;;3.63;;
5785;SDS011;2919;48.630;9.000;2023-02-28T12:37:51;8.93;;;3.87;;
5785;SDS011;2919;48.630;9.000;2023-02-28T12:40:21;7.77;;;3.60;;
5785;SDS011;2919;48.630;9.000;2023-02-28T12:42:49;7.30;;;3.67;;
5785;SDS011;2919;48.630;9.000;2023-02-28T12:47:48;7.80;;;3.60;;
5785;SDS011;2919;48.630;9.000;2023-02-28T12:50:21;6.00;;;4.00;;
5785;SDS011;2919;48.630;9.000;2023-02-28T12:53:03;7.80;;;3.43;;
5785;SDS011;2919;48.630;9.000;2023-02-28T13:03:37;6.67;;;4.17;;
5785;SDS011;2919;48.630;9.000;2023-02-28T13:06:22;6.80;;;4.00;;
5785;SDS011;2919;48.630;9.000;2023-02-28T13:09:10;6.43;;;3.23;;
5785;SDS011;2919;48.630;9.000;2023-02-28T13:11:47;7.60;;;3.40;;
5785;SDS011;2919;48.630;9.000;2023-02-28T13:14:28;12.03;;;4.50;;
5785;SDS011;2919;48.630;9.000;2023-02-28T13:16:59;9.33;;;4.47;;
5785;SDS011;2919;48.630;9.000;2023-02-28T13:19:35;4.57;;;3.43;;
5785;SDS011;2919;48.630;9.000;2023-02-28T13:22:05;8.93;;;3.93;;
5785;SDS011;2919;48.630;9.000;2023-02-28T13:24:52;6.40;;;3.30;;
5785;SDS011;2919;48.630;9.000;2023-02-28T13:29:51;6.70;;;3.73;;
5785;SDS011;2919;48.630;9.000;2023-02-28T13:32:18;5.87;;;3.80;;
5785;SDS011;2919;48.630;9.000;2023-02-28T13:39:51;10.10;;;3.57;;
5785;SDS011;2919;48.630;9.000;2023-02-28T13:52:48;10.83;;;4.80;;
5785;SDS011;2919;48.630;9.000;2023-02-28T13:57:52;13.80;;;4.13;;
5785;SDS011;2919;48.630;9.000;2023-02-28T14:00:54;8.60;;;4.53;;
5785;SDS011;2919;48.630;9.000;2023-02-28T14:03:58;7.67;;;4.00;;
5785;SDS011;2919;48.630;9.000;2023-02-28T14:06:48;8.77;;;4.00;;
5785;SDS011;2919;48.630;9.000;2023-02-28T14:09:28;7.80;;;4.73;;
5785;SDS011;2919;48.630;9.000;2023-02-28T14:11:58;9.00;;;4.37;;
5785;SDS011;2919;48.630;9.000;2023-02-28T14:15:02;16.33;;;5.83;;
5785;SDS011;2919;48.630;9.000;2023-02-28T14:17:28;7.23;;;3.93;;
5785;SDS011;2919;48.630;9.000;2023-02-28T14:19:54;7.43;;;3.97;;
5785;SDS011;2919;48.630;9.000;2023-02-28T14:28:43;5.87;;;3.77;;
5785;SDS011;2919;48.630;9.000;2023-02-28T14:31:25;13.73;;;4.67;;
5785;SDS011;2919;48.630;9.000;2023-02-28T14:37:13;9.60;;;4.63;;
5785;SDS011;2919;48.630;9.000;2023-02-28T14:39:45;15.27;;;5.17;;
5785;SDS011;2919;48.630;9.000;2023-02-28T14:44:55;10.17;;;3.70;;
5785;SDS011;2919;48.630;9.000;2023-02-28T14:47:21;4.97;;;3.53;;
5785;SDS011;2919;48.630;9.000;2023-02-28T14:49:51;9.50;;;3.83;;
5785;SDS011;2919;48.630;9.000;2023-02-28T14:54:54;8.97;;;5.27;;
5785;SDS011;2919;48.630;9.000;2023-02-28T14:57:23;8.30;;;3.37;;
5785;SDS011;2919;48.630;9.000;2023-02-28T15:02:35;8.53;;;4.53;;
5785;SDS011;2919;48.630;9.000;2023-02-28T15:07:37;10.10;;;3.60;;
5785;SDS011;2919;48.630;9.000;2023-02-28T15:10:08;5.77;;;3.80;;
5785;SDS011;2919;48.630;9.000;2023-02-28T15:12:34;12.47;;;4.27;;
5785;SDS011;2919;48.630;9.000;2023-02-28T15:15:01;7.30;;;3.87;;
5785;SDS011;2919;48.630;9.000;2023-02-28T15:17:27;7.97;;;3.70;;
5785;SDS011;2919;48.630;9.000;2023-02-28T15:19:53;9.10;;;4.17;;
5785;SDS011;2919;48.630;9.000;2023-02-28T15:22:22;6.93;;;3.53;;
5785;SDS011;2919;48.630;9.000;2023-02-28T15:25:00;7.10;;;4.23;;
5785;SDS011;2919;48.630;9.000;2023-02-28T15:27:31;7.70;;;3.67;;
5785;SDS011;2919;48.630;9.000;2023-02-28T15:29:59;5.50;;;3.53;;
5785;SDS011;2919;48.630;9.000;2023-02-28T15:32:37;6.50;;;3.87;;
5785;SDS011;2919;48.630;9.000;2023-02-28T15:37:56;8.27;;;3.83;;
5785;SDS011;2919;48.630;9.000;2023-02-28T15:40:43;8.20;;;4.63;;
5785;SDS011;2919;48.630;9.000;2023-02-28T15:45:47;9.33;;;4.27;;
5785;SDS011;2919;48.630;9.000;2023-02-28T15:50:50;6.67;;;4.30;;
5785;SDS011;2919;48.630;9.000;2023-02-28T15:53:19;8.03;;;4.10;;
5785;SDS011;2919;48.630;9.000;2023-02-28T15:55:58;10.00;;;4.67;;
5785;SDS011;2919;48.630;9.000;2023-02-28T15:58:27;15.37;;;4.47;;
5785;SDS011;2919;48.630;9.000;2023-02-28T16:01:16;7.43;;;3.93;;
5785;SDS011;2919;48.630;9.000;2023-02-28T16:03:50;12.33;;;3.90;;
5785;SDS011;2919;48.630;9.000;2023-02-28T16:08:51;8.63;;;4.47;;
5785;SDS011;2919;48.630;9.000;2023-02-28T16:11:18;9.50;;;4.03;;
5785;SDS011;2919;48.630;9.000;2023-02-28T16:13:45;6.30;;;4.07;;
5785;SDS011;2919;48.630;9.000;2023-02-28T16:16:18;7.80;;;4.57;;
5785;SDS011;2919;48.630;9.000;2023-02-28T16:18:45;9.27;;;4.27;;
5785;SDS011;2919;48.630;9.000;2023-02-28T16:21:11;9.40;;;4.00;;
5785;SDS011;2919;48.630;9.000;2023-02-28T16:23:37;6.47;;;4.10;;
5785;SDS011;2919;48.630;9.000;2023-02-28T16:26:03;9.03;;;4.37;;
5785;SDS011;2919;48.630;9.000;2023-02-28T16:28:30;7.30;;;4.30;;
5785;SDS011;2919;48.630;9.000;2023-02-28T16:30:59;11.67;;;4.20;;
5785;SDS011;2919;48.630;9.000;2023-02-28T16:33:27;12.27;;;5.90;;
5785;SDS011;2919;48.630;9.000;2023-02-28T16:35:53;11.90;;;5.30;;
5785;SDS011;2919;48.630;9.000;2023-02-28T16:38:19;13.40;;;5.60;;
5785;SDS011;2919;48.630;9.000;2023-02-28T16:40:46;10.40;;;4.80;;
5785;SDS011;2919;48.630;9.000;2023-02-28T16:43:17;11.10;;;4.93;;
5785;SDS011;2919;48.630;9.000;2023-02-28T16:45:47;11.33;;;4.53;;
5785;SDS011;2919;48.630;9.000;2023-02-28T16:48:14;10.33;;;4.67;;
5785;SDS011;2919;48.630;9.000;2023-02-28T16:50:41;7.43;;;4.27;;
5785;SDS011;2919;48.630;9.000;2023-02-28T16:53:09;8.83;;;3.90;;
5785;SDS011;2919;48.630;9.000;2023-02-28T16:55:35;9.80;;;4.87;;
5785;SDS011;2919;48.630;9.000;2023-02-28T16:58:01;7.40;;;4.50;;
5785;SDS011;2919;48.630;9.000;2023-02-28T17:00:28;9.23;;;4.27;;
5785;SDS011;2919;48.630;9.000;2023-02-28T17:02:55;6.60;;;3.73;;
5785;SDS011;2919;48.630;9.000;2023-02-28T17:05:21;11.83;;;4.37;;
5785;SDS011;2919;48.630;9.000;2023-02-28T17:07:48;7.83;;;3.97;;
5785;SDS011;2919;48.630;9.000;2023-02-28T17:10:18;11.37;;;4.63;;
5785;SDS011;2919;48.630;9.000;2023-02-28T17:12:45;8.77;;;3.53;;
5785;SDS011;2919;48.630;9.000;2023-02-28T17:15:12;9.00;;;4.73;;
5785;SDS011;2919;48.630;9.000;2023-02-28T17:17:40;9.87;;;4.47;;
5785;SDS011;2919;48.630;9.000;2023-02-28T17:20:09;10.30;;;4.30;;
5785;SDS011;2919;48.630;9.000;2023-02-28T17:22:51;10.33;;;4.90;;
5785;SDS011;2919;48.630;9.000;2023-02-28T17:25:17;12.87;;;4.43;;
5785;SDS011;2919;48.630;9.000;2023-02-28T17:27:44;10.97;;;4.83;;
5785;SDS011;2919;48.630;9.000;2023-02-28T17:30:16;10.17;;;5.10;;
5785;SDS011;2919;48.630;9.000;2023-02-28T17:32:44;13.70;;;5.77;;
5785;SDS011;2919;48.630;9.000;2023-02-28T17:35:09;9.90;;;5.20;;
5785;SDS011;2919;48.630;9.000;2023-02-28T17:37:36;10.03;;;5.40;;
5785;SDS011;2919;48.630;9.000;2023-02-28T17:40:01;11.50;;;4.87;;
5785;SDS011;2919;48.630;9.000;2023-02-28T17:42:27;7.93;;;4.10;;
5785;SDS011;2919;48.630;9.000;2023-02-28T17:44:53;7.97;;;4.60;;
5785;SDS011;2919;48.630;9.000;2023-02-28T17:47:19;11.47;;;5.40;;
5785;SDS011;2919;48.630;9.000;2023-02-28T17:49:44;17.20;;;6.00;;
5785;SDS011;2919;48.630;9.000;2023-02-28T17:52:10;9.77;;;5.70;;
5785;SDS011;2919;48.630;9.000;2023-02-28T17:54:35;13.73;;;5.83;;
5785;SDS011;2919;48.630;9.000;2023-02-28T17:57:01;9.23;;;5.10;;
5785;SDS011;2919;48.630;9.000;2023-02-28T17:59:27;10.60;;;4.90;;
5785;SDS011;2919;48.630;9.000;2023-02-28T18:02:01;9.27;;;4.70;;
5785;SDS011;2919;48.630;9.000;2023-02-28T18:04:28;10.47;;;4.90;;
5785;SDS011;2919;48.630;9.000;2023-02-28T18:06:54;16.70;;;4.70;;
5785;SDS011;2919;48.630;9.000;2023-02-28T18:09:25;13.83;;;5.47;;
5785;SDS011;2919;48.630;9.000;2023-02-28T18:11:52;13.50;;;5.73;;
5785;SDS011;2919;48.630;9.000;2023-02-28T18:14:19;8.97;;;4.93;;
5785;SDS011;2919;48.630;9.000;2023-02-28T18:16:47;13.40;;;5.10;;
5785;SDS011;2919;48.630;9.000;2023-02-28T18:19:13;9.10;;;4.83;;